Time;durP1;ratioP1;P1;durP2;ratioP2;P2;SDS_P1;SDS_P2;PMS_P1;PMS_P2;Temp;Humidity;BMP_temperature;BMP_pressure;BME280_temperature;BME280_humidity;BME280_pressure;Samples;Min_cycle;Max_cycle;Signal;HPM_P1;HPM_P2
2024/02/26 00:00:43;;;;;;;2.60;2.40;;;9.30;99.90;;;;;;5015226;28;20191;-68
2024/02/26 00:03:10;;;;;;;3.63;2.60;;;9.20;99.90;;;;;;5012614;28;20606;-68
2024/02/26 00:05:39;;;;;;;3.07;2.30;;;9.30;99.90;;;;;;5013619;28;20648;-68
2024/02/26 00:08:07;;;;;;;2.67;2.20;;;9.20;99.90;;;;;;5012831;28;20197;-68
2024/02/26 00:10:34;;;;;;;2.37;2.17;;;9.30;99.90;;;;;;5011994;28;20199;-67
2024/02/26 00:13:01;;;;;;;2.47;2.20;;;9.30;99.90;;;;;;5012357;28;20201;-68
2024/02/26 00:15:28;;;;;;;2.53;2.23;;;9.30;99.90;;;;;;5023910;28;20274;-68
2024/02/26 00:17:55;;;;;;;3.47;2.50;;;9.30;99.90;;;;;;4994844;28;20255;-68
2024/02/26 00:20:22;;;;;;;3.13;2.70;;;9.30;99.90;;;;;;5019242;28;20191;-68
2024/02/26 00:22:51;;;;;;;3.87;2.77;;;9.30;99.90;;;;;;5012628;28;20252;-67
2024/02/26 00:25:19;;;;;;;3.80;2.53;;;9.30;99.90;;;;;;4997503;28;20229;-67
2024/02/26 00:27:46;;;;;;;3.10;2.67;;;9.30;99.90;;;;;;5005276;28;20210;-68
2024/02/26 00:30:13;;;;;;;5.40;3.70;;;9.20;99.90;;;;;;5014765;28;20206;-67
2024/02/26 00:32:40;;;;;;;6.07;3.97;;;9.20;99.90;;;;;;5022077;28;20294;-68
2024/02/26 00:35:09;;;;;;;5.57;3.80;;;9.20;99.90;;;;;;5019000;28;20202;-68
2024/02/26 00:37:36;;;;;;;6.60;4.10;;;9.20;99.90;;;;;;5020969;28;20206;-68
2024/02/26 00:40:06;;;;;;;5.43;3.70;;;9.20;99.90;;;;;;5012568;28;20278;-68
2024/02/26 00:42:33;;;;;;;4.57;3.40;;;9.20;99.90;;;;;;5023536;28;20509;-68
2024/02/26 00:45:00;;;;;;;3.27;2.87;;;9.20;99.90;;;;;;5006994;28;20306;-67
2024/02/26 00:47:27;;;;;;;4.90;3.60;;;9.10;99.90;;;;;;4994139;28;20230;-68
2024/02/26 00:49:54;;;;;;;5.43;3.80;;;9.10;99.90;;;;;;5007414;28;20208;-67
2024/02/26 00:52:21;;;;;;;4.90;3.30;;;9.10;99.90;;;;;;5029472;28;20312;-68
2024/02/26 00:54:48;;;;;;;5.63;3.53;;;9.20;99.90;;;;;;5014844;28;20302;-67
2024/02/26 00:57:17;;;;;;;4.00;3.43;;;9.10;99.90;;;;;;5022468;28;20572;-67
2024/02/26 00:59:44;;;;;;;5.27;3.90;;;9.10;99.90;;;;;;5010181;28;20203;-68
2024/02/26 01:02:11;;;;;;;5.93;3.50;;;9.10;99.90;;;;;;5021719;28;20232;-67
2024/02/26 01:04:38;;;;;;;5.70;3.77;;;9.00;99.90;;;;;;5011440;28;20241;-67
2024/02/26 01:07:05;;;;;;;4.10;3.30;;;9.00;99.90;;;;;;4995054;28;20287;-67
2024/02/26 01:09:32;;;;;;;5.50;3.30;;;9.00;99.90;;;;;;5011281;28;20206;-67
2024/02/26 01:11:59;;;;;;;6.43;3.93;;;9.00;99.90;;;;;;5014715;28;20207;-67
2024/02/26 01:14:28;;;;;;;8.37;4.13;;;9.00;99.90;;;;;;5002286;28;20629;-68
2024/02/26 01:16:55;;;;;;;7.60;4.17;;;8.90;99.90;;;;;;4995574;28;20194;-67
2024/02/26 01:19:24;;;;;;;7.40;4.63;;;8.90;99.90;;;;;;5011423;28;20214;-66
2024/02/26 01:21:51;;;;;;;5.47;3.93;;;8.90;99.90;;;;;;5012321;28;20260;-67
2024/02/26 01:24:18;;;;;;;6.33;3.87;;;8.90;99.90;;;;;;5011069;28;20281;-66
2024/02/26 01:26:45;;;;;;;5.57;3.63;;;8.90;99.90;;;;;;5011108;28;20222;-68
2024/02/26 01:29:12;;;;;;;4.40;3.30;;;8.90;99.90;;;;;;5010636;28;20210;-66
2024/02/26 01:31:41;;;;;;;4.43;3.33;;;8.90;99.90;;;;;;5011205;28;20217;-67
2024/02/26 01:34:08;;;;;;;5.63;3.33;;;8.80;99.90;;;;;;5010910;28;20190;-66
2024/02/26 01:36:35;;;;;;;5.07;3.30;;;8.80;99.90;;;;;;4990427;28;20194;-67
2024/02/26 01:39:03;;;;;;;6.20;3.63;;;8.80;99.90;;;;;;5002357;28;20206;-66
2024/02/26 01:41:30;;;;;;;4.67;3.70;;;8.80;99.90;;;;;;5021932;28;20571;-66
2024/02/26 01:43:57;;;;;;;5.43;3.73;;;8.90;99.90;;;;;;5010586;28;20225;-67
2024/02/26 01:46:24;;;;;;;6.23;3.93;;;8.90;99.90;;;;;;5023311;28;20305;-67
2024/02/26 01:48:53;;;;;;;5.60;3.73;;;8.90;99.90;;;;;;5010965;28;20206;-67
2024/02/26 01:51:20;;;;;;;5.57;3.83;;;8.90;99.90;;;;;;5012725;28;20283;-67
2024/02/26 01:53:47;;;;;;;6.27;4.07;;;8.90;99.90;;;;;;5018883;28;20202;-67
2024/02/26 01:56:18;;;;;;;5.07;3.80;;;8.90;99.90;;;;;;5013081;28;20211;-67
2024/02/26 01:58:45;;;;;;;6.03;3.87;;;8.80;99.90;;;;;;5017456;28;20198;-67
2024/02/26 02:09:48;;;;;;;5.27;3.70;;;8.70;99.90;;;;;;5340967;24;20238;-73
2024/02/26 02:12:15;;;;;;;5.23;3.70;;;8.70;99.90;;;;;;4860610;29;20211;-73
2024/02/26 02:14:43;;;;;;;5.30;3.57;;;8.70;99.90;;;;;;4855209;29;20224;-72
2024/02/26 02:17:11;;;;;;;5.03;3.37;;;8.70;99.90;;;;;;4857621;29;20205;-72
2024/02/26 02:19:38;;;;;;;5.10;3.70;;;8.70;99.90;;;;;;4856138;29;20655;-71
2024/02/26 02:22:07;;;;;;;5.13;3.70;;;8.70;99.90;;;;;;4865010;29;20636;-71
2024/02/26 02:24:34;;;;;;;4.37;3.57;;;8.60;99.90;;;;;;4858319;29;20207;-71
2024/02/26 02:27:01;;;;;;;5.60;3.43;;;8.60;99.90;;;;;;4863453;29;20227;-71
2024/02/26 02:29:29;;;;;;;3.83;3.43;;;8.60;99.90;;;;;;4863900;29;20571;-71
2024/02/26 02:31:56;;;;;;;5.77;3.60;;;8.60;99.90;;;;;;4868708;29;20253;-72
2024/02/26 02:34:23;;;;;;;5.50;4.00;;;8.50;99.90;;;;;;4858512;29;20218;-73
2024/02/26 02:36:53;;;;;;;4.40;3.30;;;8.50;99.90;;;;;;4860970;29;20208;-73
2024/02/26 02:39:22;;;;;;;4.43;3.47;;;8.50;99.90;;;;;;4869945;29;20536;-73
2024/02/26 02:41:49;;;;;;;3.93;3.40;;;8.50;99.90;;;;;;4872825;29;20198;-74
2024/02/26 02:44:16;;;;;;;6.00;4.00;;;8.50;99.90;;;;;;4867353;29;20249;-74
2024/02/26 02:46:44;;;;;;;5.40;3.70;;;8.50;99.90;;;;;;4876120;29;20306;-71
2024/02/26 02:49:11;;;;;;;6.17;3.87;;;8.50;99.90;;;;;;4858746;29;20211;-71
2024/02/26 02:51:38;;;;;;;4.30;3.53;;;8.40;99.90;;;;;;4859557;29;20644;-72
2024/02/26 02:54:05;;;;;;;4.07;3.53;;;8.50;99.90;;;;;;4869158;29;20202;-72
2024/02/26 02:56:34;;;;;;;6.97;4.33;;;8.50;99.90;;;;;;4877358;29;20214;-72
2024/02/26 02:59:01;;;;;;;4.57;3.10;;;8.50;99.90;;;;;;4870104;29;20237;-73
2024/02/26 03:01:28;;;;;;;5.53;3.90;;;8.50;99.90;;;;;;4878112;29;20203;-73
2024/02/26 03:03:55;;;;;;;6.10;3.87;;;8.50;99.90;;;;;;4861255;29;20203;-73
2024/02/26 03:06:23;;;;;;;6.43;3.80;;;8.50;99.90;;;;;;4861266;29;20223;-73
2024/02/26 03:08:50;;;;;;;5.77;3.83;;;8.50;99.90;;;;;;4871068;29;20674;-73
2024/02/26 03:11:17;;;;;;;5.13;3.53;;;8.50;99.90;;;;;;4869473;29;20208;-72
2024/02/26 03:13:45;;;;;;;3.80;3.20;;;8.50;99.90;;;;;;4869503;29;20202;-72
2024/02/26 03:16:13;;;;;;;5.00;3.80;;;8.50;99.90;;;;;;4866448;29;20281;-72
2024/02/26 03:18:40;;;;;;;6.17;3.50;;;8.50;99.90;;;;;;4864493;29;20343;-72
2024/02/26 03:21:07;;;;;;;5.47;3.83;;;8.40;99.90;;;;;;4861772;29;20283;-72
2024/02/26 03:23:36;;;;;;;6.37;3.93;;;8.30;99.90;;;;;;4860610;29;20218;-71
2024/02/26 03:26:04;;;;;;;4.83;3.40;;;8.30;99.90;;;;;;4864945;29;20262;-71
2024/02/26 03:28:33;;;;;;;5.23;3.77;;;8.30;99.90;;;;;;4867989;29;20290;-72
2024/02/26 03:31:02;;;;;;;5.23;3.60;;;8.30;99.90;;;;;;4852242;29;20279;-72
2024/02/26 03:33:29;;;;;;;5.43;3.63;;;8.30;99.90;;;;;;4849328;29;20208;-72
2024/02/26 03:35:56;;;;;;;8.10;4.73;;;8.40;99.90;;;;;;4862668;29;20199;-72
2024/02/26 03:38:23;;;;;;;8.70;5.03;;;8.40;99.90;;;;;;4875135;29;20273;-72
2024/02/26 03:40:50;;;;;;;6.93;4.47;;;8.40;99.90;;;;;;4867201;29;20243;-71
2024/02/26 03:43:18;;;;;;;6.90;4.13;;;8.30;99.90;;;;;;4873917;29;20506;-71
2024/02/26 03:45:45;;;;;;;7.97;4.43;;;8.30;99.90;;;;;;4865153;29;20316;-72
2024/02/26 03:48:14;;;;;;;5.10;4.10;;;8.30;99.90;;;;;;4869467;29;20200;-71
2024/02/26 03:50:41;;;;;;;4.77;3.70;;;8.30;99.90;;;;;;4876295;29;20547;-72
2024/02/26 03:53:08;;;;;;;6.60;3.80;;;8.20;99.90;;;;;;4875968;29;20206;-71
2024/02/26 03:55:36;;;;;;;7.10;4.53;;;8.20;99.90;;;;;;4856090;29;20193;-72
2024/02/26 03:58:03;;;;;;;6.23;4.07;;;8.20;99.90;;;;;;4873585;29;20212;-72
2024/02/26 04:00:30;;;;;;;6.83;4.23;;;8.20;99.90;;;;;;4862506;29;20290;-72
2024/02/26 04:02:58;;;;;;;5.63;3.90;;;8.20;99.90;;;;;;4862989;29;20209;-72
2024/02/26 04:05:26;;;;;;;7.53;4.63;;;8.20;99.90;;;;;;4857617;29;20212;-73
2024/02/26 04:07:53;;;;;;;4.90;3.73;;;8.20;99.90;;;;;;4862792;29;20729;-73
2024/02/26 04:10:20;;;;;;;6.77;4.43;;;8.20;99.90;;;;;;4857159;29;20639;-73
2024/02/26 04:12:47;;;;;;;8.93;4.63;;;8.20;99.90;;;;;;4868090;29;20567;-73
2024/02/26 04:15:14;;;;;;;7.73;4.80;;;8.20;99.90;;;;;;4868576;29;20213;-73
2024/02/26 04:17:42;;;;;;;8.60;5.17;;;8.10;99.90;;;;;;4872063;29;20209;-73
2024/02/26 04:20:15;;;;;;;9.20;5.60;;;8.20;99.90;;;;;;4864357;29;20210;-73
2024/02/26 04:22:44;;;;;;;8.13;5.10;;;8.20;99.90;;;;;;4864266;29;20642;-73
2024/02/26 04:25:11;;;;;;;10.73;5.83;;;8.10;99.90;;;;;;4864922;29;20255;-73
2024/02/26 04:27:38;;;;;;;11.67;6.63;;;8.10;99.90;;;;;;4870182;29;20278;-73
2024/02/26 04:30:06;;;;;;;11.97;6.43;;;8.00;99.90;;;;;;4864309;29;20288;-73
2024/02/26 04:32:34;;;;;;;13.10;7.03;;;7.90;99.90;;;;;;4868910;29;20233;-73
2024/02/26 04:35:01;;;;;;;15.37;7.33;;;8.00;99.90;;;;;;4864639;29;20205;-73
2024/02/26 04:37:30;;;;;;;19.33;9.40;;;8.00;99.90;;;;;;4865384;29;20288;-73
2024/02/26 04:40:00;;;;;;;28.73;11.23;;;8.00;99.90;;;;;;4858652;29;20231;-73
2024/02/26 04:42:28;;;;;;;23.10;10.27;;;8.00;99.90;;;;;;4855782;29;20321;-73
2024/02/26 04:44:56;;;;;;;37.53;14.97;;;7.90;99.90;;;;;;4862050;29;20207;-73
2024/02/26 04:47:23;;;;;;;47.47;19.03;;;7.90;99.90;;;;;;4861397;29;20222;-73
2024/02/26 04:49:50;;;;;;;60.07;22.73;;;7.80;99.90;;;;;;4864681;29;20230;-72
2024/02/26 04:52:18;;;;;;;53.07;21.87;;;7.80;99.90;;;;;;4860243;29;20214;-73
2024/02/26 04:54:45;;;;;;;44.47;19.20;;;7.70;99.90;;;;;;4853902;29;20557;-73
2024/02/26 04:57:14;;;;;;;39.93;16.17;;;7.60;99.90;;;;;;4862819;29;20229;-72
2024/02/26 04:59:42;;;;;;;34.67;15.67;;;7.60;99.90;;;;;;4865204;29;20273;-73
2024/02/26 05:02:09;;;;;;;29.10;12.90;;;7.60;99.90;;;;;;4866888;29;20236;-72
2024/02/26 05:04:36;;;;;;;22.37;11.23;;;7.50;99.90;;;;;;4866154;29;20574;-73
2024/02/26 05:07:04;;;;;;;20.83;10.20;;;7.40;99.90;;;;;;4865636;29;20293;-74
2024/02/26 05:09:31;;;;;;;23.23;9.87;;;7.30;99.90;;;;;;4868268;29;20246;-72
2024/02/26 05:11:58;;;;;;;23.30;10.87;;;7.30;99.90;;;;;;4862603;29;20674;-72
2024/02/26 05:14:27;;;;;;;17.03;8.57;;;7.40;99.90;;;;;;4865986;29;20204;-73
2024/02/26 05:16:54;;;;;;;21.63;8.63;;;7.40;99.90;;;;;;4869271;29;20209;-73
2024/02/26 05:19:21;;;;;;;16.83;7.50;;;7.40;99.90;;;;;;4871557;29;20206;-73
2024/02/26 05:21:50;;;;;;;28.43;12.97;;;7.40;99.90;;;;;;4864168;29;20215;-71
2024/02/26 05:24:17;;;;;;;23.83;10.83;;;7.30;99.90;;;;;;4852290;29;20579;-72
2024/02/26 05:26:44;;;;;;;23.73;9.87;;;7.30;99.90;;;;;;4874692;29;20230;-72
2024/02/26 05:29:11;;;;;;;19.17;8.83;;;7.30;99.90;;;;;;4868317;29;20675;-72
2024/02/26 05:31:40;;;;;;;23.50;10.17;;;7.20;99.90;;;;;;4869668;29;20200;-74
2024/02/26 05:34:07;;;;;;;19.07;9.23;;;7.20;99.90;;;;;;4873182;29;20208;-73
2024/02/26 05:36:34;;;;;;;19.73;9.03;;;7.20;99.90;;;;;;4857954;29;20528;-73
2024/02/26 05:39:03;;;;;;;15.23;7.03;;;7.20;99.90;;;;;;4872808;29;20200;-71
2024/02/26 05:41:30;;;;;;;15.00;6.83;;;7.30;99.90;;;;;;4866162;29;20264;-71
2024/02/26 05:43:59;;;;;;;12.73;6.80;;;7.20;99.90;;;;;;4867612;29;20692;-71
2024/02/26 05:46:26;;;;;;;12.23;6.77;;;7.20;99.90;;;;;;4871195;29;20217;-71
2024/02/26 05:48:55;;;;;;;17.90;8.10;;;7.20;99.90;;;;;;4862062;29;20560;-71
2024/02/26 05:51:22;;;;;;;15.87;7.97;;;7.20;99.90;;;;;;4859109;29;20594;-70
2024/02/26 05:53:53;;;;;;;14.93;7.50;;;7.20;99.90;;;;;;4870381;29;20222;-71
2024/02/26 05:56:21;;;;;;;11.13;5.60;;;7.20;99.90;;;;;;4858777;29;20201;-72
2024/02/26 05:58:48;;;;;;;10.37;6.10;;;7.20;99.90;;;;;;4865577;29;20200;-72
2024/02/26 06:01:17;;;;;;;11.70;6.83;;;7.20;99.90;;;;;;4861394;29;20232;-72
2024/02/26 06:03:44;;;;;;;12.00;6.37;;;7.20;99.90;;;;;;4871069;29;20218;-71
2024/02/26 06:06:14;;;;;;;12.40;6.40;;;7.20;99.90;;;;;;4861438;29;20328;-72
2024/02/26 06:08:41;;;;;;;17.37;8.07;;;7.20;99.90;;;;;;4871058;29;20273;-72
2024/02/26 06:11:08;;;;;;;17.20;8.57;;;7.30;99.90;;;;;;4865747;29;20192;-71
2024/02/26 06:13:35;;;;;;;20.00;7.60;;;7.30;99.90;;;;;;4867656;29;20196;-71
2024/02/26 06:16:03;;;;;;;15.13;7.07;;;7.40;99.90;;;;;;4860604;29;20226;-73
2024/02/26 06:18:30;;;;;;;10.80;6.23;;;7.40;99.90;;;;;;4863640;29;20255;-73
2024/02/26 06:20:57;;;;;;;11.23;5.77;;;7.40;99.90;;;;;;4860758;29;20200;-73
2024/02/26 06:23:26;;;;;;;11.60;6.90;;;7.40;99.90;;;;;;4864650;29;20291;-72
2024/02/26 06:25:53;;;;;;;14.03;6.67;;;7.40;99.90;;;;;;4861896;29;20526;-73
2024/02/26 06:28:20;;;;;;;10.03;5.90;;;7.40;99.90;;;;;;4862306;29;20890;-73
2024/02/26 06:30:47;;;;;;;11.30;5.93;;;7.50;99.90;;;;;;4865228;29;20275;-73
2024/02/26 06:33:15;;;;;;;10.87;6.00;;;7.50;99.90;;;;;;4863834;29;20217;-73
2024/02/26 06:35:42;;;;;;;13.23;6.90;;;7.60;99.90;;;;;;4865425;29;20284;-73
2024/02/26 06:38:11;;;;;;;12.17;6.27;;;7.60;99.90;;;;;;4865736;29;20201;-73
2024/02/26 06:40:40;;;;;;;12.63;6.43;;;7.60;99.90;;;;;;4860004;29;20577;-73
2024/02/26 06:43:07;;;;;;;11.87;5.97;;;7.60;99.90;;;;;;4870010;29;20297;-72
2024/02/26 06:45:34;;;;;;;14.97;6.37;;;7.60;99.90;;;;;;4866620;29;20693;-71
2024/02/26 06:48:02;;;;;;;11.27;6.40;;;7.60;99.90;;;;;;4866452;29;20219;-71
2024/02/26 06:50:29;;;;;;;12.97;7.00;;;7.60;99.90;;;;;;4872093;29;20217;-71
2024/02/26 06:52:56;;;;;;;15.10;7.30;;;7.70;99.90;;;;;;4854058;29;20202;-71
2024/02/26 06:55:23;;;;;;;12.83;6.90;;;7.80;99.90;;;;;;4871477;29;20227;-73
2024/02/26 06:57:52;;;;;;;11.10;6.27;;;7.80;99.90;;;;;;4865204;29;20301;-76
2024/02/26 07:00:19;;;;;;;9.40;5.93;;;7.80;99.90;;;;;;4858391;29;20200;-71
2024/02/26 07:02:47;;;;;;;8.53;5.60;;;7.80;99.90;;;;;;4837725;29;20641;-70
2024/02/26 07:05:14;;;;;;;13.67;6.90;;;7.80;99.90;;;;;;4854950;29;20205;-71
2024/02/26 07:07:41;;;;;;;11.63;6.40;;;7.90;99.90;;;;;;4859685;29;20239;-71
2024/02/26 07:10:09;;;;;;;10.60;6.13;;;7.90;99.90;;;;;;4860510;29;20232;-71
2024/02/26 07:12:36;;;;;;;10.93;6.10;;;8.00;99.90;;;;;;4852161;29;20274;-71
2024/02/26 07:15:07;;;;;;;13.13;7.10;;;8.00;99.90;;;;;;4859536;29;20229;-72
2024/02/26 07:17:35;;;;;;;16.03;8.60;;;8.10;99.90;;;;;;4854298;29;20387;-71
2024/02/26 07:20:04;;;;;;;12.63;7.43;;;8.10;99.90;;;;;;4862207;29;20873;-71
2024/02/26 07:22:31;;;;;;;14.10;7.23;;;8.10;99.90;;;;;;4856441;29;20283;-71
2024/02/26 07:24:58;;;;;;;10.77;6.70;;;8.20;99.90;;;;;;4867895;29;20230;-71
2024/02/26 07:27:25;;;;;;;12.87;7.07;;;8.30;99.90;;;;;;4850740;29;20672;-71
2024/02/26 07:29:52;;;;;;;13.33;7.23;;;8.30;99.90;;;;;;4864900;29;20214;-71
2024/02/26 07:32:22;;;;;;;11.30;7.17;;;8.40;99.90;;;;;;4862536;29;20208;-71
2024/02/26 07:34:49;;;;;;;16.50;7.60;;;8.40;99.90;;;;;;4863070;29;20230;-71
2024/02/26 07:37:17;;;;;;;14.00;8.47;;;8.50;99.90;;;;;;4859946;29;20281;-71
2024/02/26 07:39:44;;;;;;;16.43;7.67;;;8.60;99.90;;;;;;4861700;29;20203;-71
2024/02/26 07:42:11;;;;;;;17.07;9.37;;;8.60;99.90;;;;;;4855329;29;20206;-71
2024/02/26 07:44:38;;;;;;;17.97;10.27;;;8.80;99.90;;;;;;4876325;29;20273;-71
2024/02/26 07:47:05;;;;;;;23.17;12.80;;;8.90;99.90;;;;;;4856435;29;20207;-71
2024/02/26 07:49:34;;;;;;;57.43;26.67;;;9.10;99.90;;;;;;4859649;29;20203;-71
2024/02/26 07:52:01;;;;;;;59.47;28.63;;;9.20;99.90;;;;;;4862343;29;20208;-71
2024/02/26 07:54:28;;;;;;;61.87;29.03;;;9.60;99.90;;;;;;4860749;29;20204;-71
2024/02/26 07:56:55;;;;;;;49.53;24.00;;;9.80;99.90;;;;;;4859794;29;20304;-71
2024/02/26 07:59:22;;;;;;;46.83;24.97;;;10.10;99.90;;;;;;4860298;29;20303;-71
2024/02/26 08:01:51;;;;;;;40.70;21.73;;;10.40;99.90;;;;;;4865821;29;20283;-71
2024/02/26 08:04:19;;;;;;;47.80;23.23;;;10.70;99.90;;;;;;4852188;29;20653;-71
2024/02/26 08:06:47;;;;;;;38.97;19.93;;;11.30;99.90;;;;;;4861450;29;20225;-71
2024/02/26 08:09:15;;;;;;;30.17;15.87;;;11.80;99.90;;;;;;4849970;29;20249;-71
2024/02/26 08:11:42;;;;;;;25.87;14.53;;;12.30;99.90;;;;;;4853410;29;20607;-71
2024/02/26 08:14:09;;;;;;;22.27;12.90;;;12.60;99.90;;;;;;4860583;29;20228;-71
2024/02/26 08:16:36;;;;;;;24.60;12.90;;;12.80;99.90;;;;;;4859795;29;20220;-72
2024/02/26 08:19:03;;;;;;;17.30;9.47;;;12.90;99.90;;;;;;4859811;29;20206;-72
2024/02/26 08:21:30;;;;;;;19.27;10.47;;;13.10;99.90;;;;;;4866119;29;20262;-72
2024/02/26 08:23:58;;;;;;;24.67;13.33;;;13.40;99.90;;;;;;4862417;29;20241;-72
2024/02/26 08:26:26;;;;;;;25.27;12.87;;;13.80;99.90;;;;;;4864186;29;20207;-72
2024/02/26 08:28:55;;;;;;;22.63;11.93;;;14.00;99.90;;;;;;4864887;29;20594;-72
2024/02/26 08:31:23;;;;;;;22.10;12.63;;;14.20;99.90;;;;;;4854867;29;20259;-72
2024/02/26 08:33:50;;;;;;;19.23;11.80;;;14.60;99.90;;;;;;4860376;29;20306;-72
2024/02/26 08:36:17;;;;;;;18.60;10.93;;;14.70;99.70;;;;;;4860605;29;20207;-72
2024/02/26 08:38:47;;;;;;;18.10;10.17;;;14.70;99.40;;;;;;4856200;29;20666;-72
2024/02/26 08:41:16;;;;;;;16.03;9.80;;;14.70;99.40;;;;;;4857879;29;20204;-72
2024/02/26 08:43:43;;;;;;;19.50;11.10;;;14.60;99.40;;;;;;4854866;29;20581;-72
2024/02/26 08:46:11;;;;;;;12.13;8.00;;;14.50;99.50;;;;;;4854602;29;20637;-72
2024/02/26 08:48:38;;;;;;;12.47;7.77;;;14.50;99.70;;;;;;4855512;29;20306;-72
2024/02/26 08:51:07;;;;;;;11.33;7.20;;;14.50;99.80;;;;;;4857124;29;20212;-72
2024/02/26 08:53:35;;;;;;;13.73;7.33;;;14.40;99.90;;;;;;4853841;29;20213;-72
2024/02/26 08:56:02;;;;;;;13.53;7.27;;;14.30;99.90;;;;;;4867078;29;20209;-72
2024/02/26 08:58:30;;;;;;;14.67;7.57;;;14.10;99.90;;;;;;4860870;29;20243;-72
2024/02/26 09:00:57;;;;;;;11.87;8.20;;;14.10;99.90;;;;;;4860553;29;20201;-71
2024/02/26 09:03:26;;;;;;;12.63;8.47;;;14.30;99.90;;;;;;4868097;29;20231;-71
2024/02/26 09:05:53;;;;;;;15.10;9.80;;;14.30;99.90;;;;;;4858402;29;20208;-71
2024/02/26 09:08:21;;;;;;;15.73;8.93;;;14.30;99.90;;;;;;4860775;29;20282;-71
2024/02/26 09:10:49;;;;;;;13.00;7.77;;;14.20;99.90;;;;;;4856690;29;20236;-71
2024/02/26 09:13:16;;;;;;;12.40;8.00;;;14.10;99.90;;;;;;4859525;29;20567;-71
2024/02/26 09:15:44;;;;;;;18.10;9.40;;;14.00;99.90;;;;;;4859125;29;20214;-71
2024/02/26 09:18:11;;;;;;;18.63;10.30;;;14.00;99.90;;;;;;4857749;29;20214;-70
2024/02/26 09:20:39;;;;;;;18.00;11.03;;;14.10;99.90;;;;;;4854165;29;20217;-71
2024/02/26 09:23:06;;;;;;;16.50;10.27;;;14.10;99.90;;;;;;4857104;29;20225;-71
2024/02/26 09:25:34;;;;;;;21.00;11.80;;;14.30;99.90;;;;;;4864633;29;20207;-71
2024/02/26 09:28:01;;;;;;;23.03;12.47;;;14.30;99.90;;;;;;4855817;29;20231;-72
2024/02/26 09:30:28;;;;;;;18.67;11.63;;;14.30;99.90;;;;;;4866407;29;20209;-72
2024/02/26 09:32:57;;;;;;;21.37;11.90;;;14.30;99.90;;;;;;4863148;29;20246;-71
2024/02/26 09:35:24;;;;;;;19.50;11.20;;;14.20;99.90;;;;;;4863603;29;20197;-72
2024/02/26 09:37:52;;;;;;;17.60;9.77;;;14.10;99.90;;;;;;4852747;29;20300;-72
2024/02/26 09:40:19;;;;;;;18.27;9.77;;;14.20;99.90;;;;;;4858618;29;20535;-72
2024/02/26 09:42:46;;;;;;;14.90;9.03;;;14.30;99.90;;;;;;4856636;29;20201;-72
2024/02/26 09:45:19;;;;;;;13.73;8.80;;;14.70;99.90;;;;;;4851845;29;20201;-72
2024/02/26 09:47:49;;;;;;;16.90;10.37;;;15.00;99.90;;;;;;4850125;29;20272;-72
2024/02/26 09:50:22;;;;;;;15.70;9.57;;;15.10;99.90;;;;;;4859805;29;20211;-72
2024/02/26 09:52:50;;;;;;;13.90;8.83;;;15.30;99.90;;;;;;4861355;29;20246;-72
2024/02/26 09:55:18;;;;;;;9.63;6.33;;;15.50;99.90;;;;;;4856790;29;20758;-72
2024/02/26 09:57:47;;;;;;;10.17;6.77;;;15.80;99.90;;;;;;4857204;29;20199;-72
2024/02/26 10:00:19;;;;;;;13.20;8.10;;;16.00;99.80;;;;;;4855871;29;20204;-72
2024/02/26 10:02:47;;;;;;;18.60;10.03;;;16.10;99.50;;;;;;4860398;29;20211;-72
2024/02/26 10:05:19;;;;;;;15.07;9.23;;;16.20;98.90;;;;;;4861013;29;20748;-72
2024/02/26 10:07:46;;;;;;;10.50;7.47;;;16.40;98.80;;;;;;4855753;29;20204;-71
2024/02/26 10:10:15;;;;;;;9.27;7.07;;;16.70;98.90;;;;;;4854119;29;20611;-72
2024/02/26 10:12:42;;;;;;;10.63;7.30;;;17.20;98.60;;;;;;4854316;29;20204;-71
2024/02/26 10:15:10;;;;;;;12.63;8.27;;;17.70;98.00;;;;;;4859245;29;20566;-70
2024/02/26 10:17:37;;;;;;;12.57;7.60;;;18.20;97.00;;;;;;4852288;29;20212;-71
2024/02/26 10:20:17;;;;;;;15.00;7.83;;;18.90;96.20;;;;;;4859018;29;20266;-71
2024/02/26 10:22:46;;;;;;;13.27;9.00;;;19.70;95.10;;;;;;4863306;29;20220;-71
2024/02/26 10:25:13;;;;;;;12.10;7.03;;;20.20;92.50;;;;;;4868584;29;20194;-71
2024/02/26 10:27:42;;;;;;;10.60;6.90;;;20.50;92.20;;;;;;4858776;29;20234;-71
2024/02/26 10:30:18;;;;;;;14.10;7.75;;;21.10;91.80;;;;;;4861516;29;20199;-71
2024/02/26 10:32:46;;;;;;;11.20;6.97;;;21.80;90.30;;;;;;4855853;29;20201;-71
2024/02/26 10:35:13;;;;;;;8.07;6.00;;;22.50;88.80;;;;;;4855061;29;20715;-71
2024/02/26 10:37:41;;;;;;;8.13;6.38;;;23.10;86.70;;;;;;4853782;29;20217;-71
2024/02/26 10:40:12;;;;;;;14.65;7.68;;;23.90;84.40;;;;;;4858237;29;20204;-71
2024/02/26 10:42:39;;;;;;;10.73;7.38;;;24.20;80.40;;;;;;4851214;29;20293;-71
2024/02/26 10:45:08;;;;;;;9.13;6.72;;;24.20;78.00;;;;;;4854220;29;20239;-71
2024/02/26 10:47:36;;;;;;;12.82;7.47;;;24.30;77.40;;;;;;4855221;29;20220;-71
2024/02/26 10:50:04;;;;;;;12.38;6.65;;;24.40;76.90;;;;;;4852658;29;20220;-72
2024/02/26 10:52:34;;;;;;;12.68;8.15;;;24.60;76.60;;;;;;4860083;29;20630;-72
2024/02/26 10:55:03;;;;;;;9.73;7.00;;;24.80;75.70;;;;;;4855806;29;20216;-71
2024/02/26 10:57:34;;;;;;;16.15;8.75;;;25.00;74.60;;;;;;4855943;29;20204;-71
2024/02/26 11:00:05;;;;;;;17.75;9.55;;;24.80;71.80;;;;;;4864155;29;20205;-71
2024/02/26 11:02:34;;;;;;;13.00;8.50;;;24.30;71.20;;;;;;4863554;29;20664;-72
2024/02/26 11:05:04;;;;;;;16.10;9.35;;;23.60;70.40;;;;;;4865054;29;20270;-72
2024/02/26 11:07:32;;;;;;;15.05;9.38;;;23.00;71.90;;;;;;4860516;29;20248;-72
2024/02/26 11:10:01;;;;;;;17.20;10.07;;;22.50;72.50;;;;;;4866156;29;20564;-71
2024/02/26 11:12:30;;;;;;;14.90;8.88;;;22.50;72.80;;;;;;4853227;29;20204;-72
2024/02/26 11:15:00;;;;;;;14.73;8.93;;;22.60;72.60;;;;;;4866475;29;20211;-71
2024/02/26 11:17:31;;;;;;;13.82;9.00;;;22.50;72.30;;;;;;4860719;29;20207;-71
2024/02/26 11:19:59;;;;;;;13.23;8.57;;;22.10;72.00;;;;;;4866700;29;20310;-73
2024/02/26 11:22:27;;;;;;;12.82;8.90;;;21.60;72.60;;;;;;4855378;29;20414;-74
2024/02/26 11:24:57;;;;;;;12.73;8.43;;;21.20;73.40;;;;;;4861606;29;20200;-73
2024/02/26 11:27:29;;;;;;;13.27;8.38;;;20.80;74.30;;;;;;4861749;29;20688;-74
2024/02/26 11:30:00;;;;;;;12.00;7.70;;;20.60;74.80;;;;;;4862565;29;20237;-72
2024/02/26 11:32:29;;;;;;;8.82;6.43;;;20.40;75.30;;;;;;4856233;29;20691;-73
2024/02/26 11:34:57;;;;;;;14.00;8.15;;;20.20;75.70;;;;;;4857411;29;20568;-74
2024/02/26 11:37:25;;;;;;;11.98;7.88;;;19.90;75.90;;;;;;4860741;29;20209;-73
2024/02/26 11:39:53;;;;;;;12.20;7.63;;;19.50;76.70;;;;;;4856839;29;20193;-73
2024/02/26 11:42:25;;;;;;;11.50;7.63;;;19.20;77.90;;;;;;4858520;29;20549;-74
2024/02/26 11:44:53;;;;;;;15.60;8.98;;;19.10;78.60;;;;;;4854045;29;20301;-73
2024/02/26 11:47:23;;;;;;;16.58;9.32;;;19.00;78.90;;;;;;4853127;29;20625;-74
2024/02/26 11:49:50;;;;;;;11.85;8.00;;;18.80;79.30;;;;;;4858000;29;20633;-74
2024/02/26 11:52:18;;;;;;;14.68;8.90;;;18.60;80.00;;;;;;4854815;29;20223;-73
2024/02/26 11:54:46;;;;;;;11.10;7.25;;;18.60;80.80;;;;;;4864139;29;20216;-73
2024/02/26 11:57:28;;;;;;;11.65;8.68;;;18.50;81.10;;;;;;4863482;29;20204;-73
2024/02/26 12:00:12;;;;;;;14.93;9.60;;;18.30;81.70;;;;;;4856736;29;20637;-73
2024/02/26 12:02:42;;;;;;;16.88;9.85;;;18.20;82.60;;;;;;4856195;29;20208;-74
2024/02/26 12:05:13;;;;;;;12.27;7.72;;;18.10;83.90;;;;;;4857661;29;20503;-74
2024/02/26 12:07:43;;;;;;;14.23;9.15;;;18.00;84.40;;;;;;4856802;29;20308;-74
2024/02/26 12:10:21;;;;;;;14.40;9.15;;;17.80;85.20;;;;;;4856531;29;20236;-73
2024/02/26 12:12:49;;;;;;;12.00;9.00;;;17.60;86.10;;;;;;4862134;29;20200;-74
2024/02/26 12:15:19;;;;;;;13.38;8.93;;;17.60;86.70;;;;;;4862310;29;20243;-73
2024/02/26 12:17:52;;;;;;;10.70;7.55;;;17.50;87.30;;;;;;4874895;29;20570;-73
2024/02/26 12:20:20;;;;;;;9.70;7.27;;;17.50;87.80;;;;;;4859916;29;20268;-74
2024/02/26 12:22:49;;;;;;;11.05;7.78;;;17.60;88.00;;;;;;4868139;29;20212;-73
2024/02/26 12:25:16;;;;;;;10.20;7.28;;;17.70;88.20;;;;;;4862282;29;20259;-73
2024/02/26 12:27:43;;;;;;;9.17;6.63;;;17.70;89.10;;;;;;4871283;29;20207;-73
2024/02/26 12:30:12;;;;;;;10.80;7.50;;;17.70;88.50;;;;;;4864560;29;20224;-73
2024/02/26 12:32:39;;;;;;;13.52;8.90;;;17.70;88.60;;;;;;4868363;29;20241;-73
2024/02/26 12:35:09;;;;;;;16.67;10.77;;;17.60;88.90;;;;;;4860633;29;20211;-74
2024/02/26 12:37:37;;;;;;;11.57;8.40;;;17.40;89.30;;;;;;4864974;29;20211;-73
2024/02/26 12:40:07;;;;;;;15.85;8.63;;;17.10;90.00;;;;;;4864178;29;20221;-73
2024/02/26 12:42:39;;;;;;;13.20;8.70;;;17.10;90.30;;;;;;4868216;29;20218;-73
2024/02/26 12:45:09;;;;;;;13.00;8.70;;;17.00;90.50;;;;;;4857760;29;20295;-73
2024/02/26 12:47:39;;;;;;;10.20;7.40;;;17.00;90.70;;;;;;4860583;29;20252;-74
2024/02/26 12:50:09;;;;;;;17.02;9.88;;;17.00;90.70;;;;;;4854064;29;20328;-73
2024/02/26 12:52:40;;;;;;;13.20;9.03;;;17.10;90.80;;;;;;4858060;29;20191;-73
2024/02/26 12:55:08;;;;;;;15.50;10.52;;;17.20;90.80;;;;;;4856259;29;20200;-74
2024/02/26 12:57:38;;;;;;;14.63;9.30;;;17.40;90.90;;;;;;4857325;29;20197;-73